sensor_id;sensor_type;location;lat;lon;timestamp;P1;durP1;ratioP1;P2;durP2;ratioP2
6243;SDS011;3155;49.940;8.450;2023-04-29T00:02:22;0.60;;;0.60;;
6243;SDS011;3155;49.940;8.450;2023-04-29T00:04:57;0.40;;;0.30;;
6243;SDS011;3155;49.940;8.450;2023-04-29T00:07:48;0.33;;;0.33;;
6243;SDS011;3155;49.940;8.450;2023-04-29T00:10:20;0.43;;;0.43;;
6243;SDS011;3155;49.940;8.450;2023-04-29T00:12:47;0.47;;;0.40;;
6243;SDS011;3155;49.940;8.450;2023-04-29T00:15:20;0.45;;;0.45;;
6243;SDS011;3155;49.940;8.450;2023-04-29T00:18:10;0.40;;;0.40;;
6243;SDS011;3155;49.940;8.450;2023-04-29T00:20:37;0.43;;;0.43;;
6243;SDS011;3155;49.940;8.450;2023-04-29T00:23:04;0.30;;;0.30;;
6243;SDS011;3155;49.940;8.450;2023-04-29T00:25:32;0.43;;;0.43;;
6243;SDS011;3155;49.940;8.450;2023-04-29T00:28:00;0.45;;;0.45;;
6243;SDS011;3155;49.940;8.450;2023-04-29T00:30:51;0.63;;;0.63;;
6243;SDS011;3155;49.940;8.450;2023-04-29T00:33:21;0.40;;;0.40;;
6243;SDS011;3155;49.940;8.450;2023-04-29T00:35:52;0.65;;;0.65;;
6243;SDS011;3155;49.940;8.450;2023-04-29T00:38:19;0.35;;;0.30;;
6243;SDS011;3155;49.940;8.450;2023-04-29T00:41:10;0.40;;;0.40;;
6243;SDS011;3155;49.940;8.450;2023-04-29T00:43:37;0.45;;;0.45;;
6243;SDS011;3155;49.940;8.450;2023-04-29T00:46:04;0.40;;;0.33;;
6243;SDS011;3155;49.940;8.450;2023-04-29T00:48:30;0.40;;;0.40;;
6243;SDS011;3155;49.940;8.450;2023-04-29T00:50:59;0.30;;;0.30;;
6243;SDS011;3155;49.940;8.450;2023-04-29T00:53:25;0.45;;;0.45;;
6243;SDS011;3155;49.940;8.450;2023-04-29T00:55:52;0.57;;;0.57;;
6243;SDS011;3155;49.940;8.450;2023-04-29T00:58:19;0.40;;;0.40;;
6243;SDS011;3155;49.940;8.450;2023-04-29T01:00:47;0.40;;;0.40;;
6243;SDS011;3155;49.940;8.450;2023-04-29T01:03:15;0.80;;;0.52;;
6243;SDS011;3155;49.940;8.450;2023-04-29T01:05:42;0.35;;;0.35;;
6243;SDS011;3155;49.940;8.450;2023-04-29T01:11:19;0.50;;;0.50;;
6243;SDS011;3155;49.940;8.450;2023-04-29T01:13:49;0.30;;;0.30;;
6243;SDS011;3155;49.940;8.450;2023-04-29T01:20:04;0.80;;;0.50;;
6243;SDS011;3155;49.940;8.450;2023-04-29T01:22:13;0.40;;;0.40;;
6243;SDS011;3155;49.940;8.450;2023-04-29T01:24:40;2.20;;;0.60;;
6243;SDS011;3155;49.940;8.450;2023-04-29T01:27:28;0.40;;;0.40;;
6243;SDS011;3155;49.940;8.450;2023-04-29T01:32:55;0.50;;;0.50;;
6243;SDS011;3155;49.940;8.450;2023-04-29T01:35:34;0.40;;;0.40;;
6243;SDS011;3155;49.940;8.450;2023-04-29T01:38:16;0.32;;;0.32;;
6243;SDS011;3155;49.940;8.450;2023-04-29T01:43:37;0.57;;;0.47;;
6243;SDS011;3155;49.940;8.450;2023-04-29T01:46:08;0.50;;;0.50;;
6243;SDS011;3155;49.940;8.450;2023-04-29T01:48:36;0.50;;;0.50;;
6243;SDS011;3155;49.940;8.450;2023-04-29T01:51:04;0.60;;;0.50;;
6243;SDS011;3155;49.940;8.450;2023-04-29T01:53:32;0.70;;;0.70;;
6243;SDS011;3155;49.940;8.450;2023-04-29T01:55:59;0.40;;;0.40;;
6243;SDS011;3155;49.940;8.450;2023-04-29T01:58:25;0.97;;;0.63;;
6243;SDS011;3155;49.940;8.450;2023-04-29T02:00:55;0.73;;;0.73;;
6243;SDS011;3155;49.940;8.450;2023-04-29T02:03:22;0.40;;;0.40;;
6243;SDS011;3155;49.940;8.450;2023-04-29T02:05:49;0.50;;;0.50;;
6243;SDS011;3155;49.940;8.450;2023-04-29T02:08:16;0.50;;;0.50;;
6243;SDS011;3155;49.940;8.450;2023-04-29T02:10:56;0.68;;;0.47;;
6243;SDS011;3155;49.940;8.450;2023-04-29T02:13:24;0.63;;;0.63;;
6243;SDS011;3155;49.940;8.450;2023-04-29T02:15:52;0.60;;;0.60;;
6243;SDS011;3155;49.940;8.450;2023-04-29T02:18:18;0.40;;;0.30;;
6243;SDS011;3155;49.940;8.450;2023-04-29T02:20:45;0.60;;;0.60;;
6243;SDS011;3155;49.940;8.450;2023-04-29T02:23:12;0.50;;;0.50;;
6243;SDS011;3155;49.940;8.450;2023-04-29T02:25:39;0.60;;;0.60;;
6243;SDS011;3155;49.940;8.450;2023-04-29T02:28:05;1.15;;;0.43;;
6243;SDS011;3155;49.940;8.450;2023-04-29T02:30:32;0.50;;;0.50;;
6243;SDS011;3155;49.940;8.450;2023-04-29T02:33:06;0.43;;;0.32;;
6243;SDS011;3155;49.940;8.450;2023-04-29T02:35:34;0.43;;;0.43;;
6243;SDS011;3155;49.940;8.450;2023-04-29T02:38:07;0.45;;;0.45;;
6243;SDS011;3155;49.940;8.450;2023-04-29T02:40:34;1.10;;;0.50;;
6243;SDS011;3155;49.940;8.450;2023-04-29T02:43:05;0.50;;;0.50;;
6243;SDS011;3155;49.940;8.450;2023-04-29T02:45:32;0.20;;;0.20;;
6243;SDS011;3155;49.940;8.450;2023-04-29T02:47:59;0.45;;;0.45;;
6243;SDS011;3155;49.940;8.450;2023-04-29T02:50:26;0.40;;;0.40;;
6243;SDS011;3155;49.940;8.450;2023-04-29T02:52:53;0.32;;;0.32;;
6243;SDS011;3155;49.940;8.450;2023-04-29T02:55:20;0.40;;;0.40;;
6243;SDS011;3155;49.940;8.450;2023-04-29T02:57:47;0.50;;;0.50;;
6243;SDS011;3155;49.940;8.450;2023-04-29T03:00:14;0.20;;;0.20;;
6243;SDS011;3155;49.940;8.450;2023-04-29T03:02:41;0.30;;;0.30;;
6243;SDS011;3155;49.940;8.450;2023-04-29T03:05:11;0.75;;;0.40;;
6243;SDS011;3155;49.940;8.450;2023-04-29T03:07:38;0.45;;;0.45;;
6243;SDS011;3155;49.940;8.450;2023-04-29T03:10:08;0.35;;;0.35;;
6243;SDS011;3155;49.940;8.450;2023-04-29T03:12:35;1.10;;;0.57;;
6243;SDS011;3155;49.940;8.450;2023-04-29T03:15:05;0.47;;;0.47;;
6243;SDS011;3155;49.940;8.450;2023-04-29T03:17:33;0.55;;;0.55;;
6243;SDS011;3155;49.940;8.450;2023-04-29T03:20:00;0.35;;;0.35;;
6243;SDS011;3155;49.940;8.450;2023-04-29T03:22:26;0.40;;;0.40;;
6243;SDS011;3155;49.940;8.450;2023-04-29T03:24:53;0.35;;;0.35;;
6243;SDS011;3155;49.940;8.450;2023-04-29T03:27:20;0.40;;;0.40;;
6243;SDS011;3155;49.940;8.450;2023-04-29T03:29:50;0.52;;;0.52;;
6243;SDS011;3155;49.940;8.450;2023-04-29T03:32:17;0.50;;;0.50;;
6243;SDS011;3155;49.940;8.450;2023-04-29T03:34:44;1.10;;;0.20;;
6243;SDS011;3155;49.940;8.450;2023-04-29T03:37:10;0.22;;;0.22;;
6243;SDS011;3155;49.940;8.450;2023-04-29T03:39:37;0.40;;;0.40;;
6243;SDS011;3155;49.940;8.450;2023-04-29T03:42:04;0.20;;;0.20;;
6243;SDS011;3155;49.940;8.450;2023-04-29T03:44:33;0.38;;;0.38;;
6243;SDS011;3155;49.940;8.450;2023-04-29T03:47:03;0.20;;;0.20;;
6243;SDS011;3155;49.940;8.450;2023-04-29T03:49:30;0.20;;;0.15;;
6243;SDS011;3155;49.940;8.450;2023-04-29T03:51:56;0.20;;;0.20;;
6243;SDS011;3155;49.940;8.450;2023-04-29T03:54:24;0.30;;;0.30;;
6243;SDS011;3155;49.940;8.450;2023-04-29T03:56:51;0.38;;;0.38;;
6243;SDS011;3155;49.940;8.450;2023-04-29T03:59:17;0.23;;;0.23;;
6243;SDS011;3155;49.940;8.450;2023-04-29T04:01:44;0.30;;;0.30;;
6243;SDS011;3155;49.940;8.450;2023-04-29T04:04:11;0.30;;;0.28;;
6243;SDS011;3155;49.940;8.450;2023-04-29T04:06:38;0.15;;;0.15;;
6243;SDS011;3155;49.940;8.450;2023-04-29T04:09:05;0.52;;;0.52;;
6243;SDS011;3155;49.940;8.450;2023-04-29T04:11:32;0.50;;;0.50;;
6243;SDS011;3155;49.940;8.450;2023-04-29T04:13:59;0.17;;;0.17;;
6243;SDS011;3155;49.940;8.450;2023-04-29T04:16:26;0.40;;;0.40;;
6243;SDS011;3155;49.940;8.450;2023-04-29T04:18:53;0.30;;;0.30;;
6243;SDS011;3155;49.940;8.450;2023-04-29T04:21:19;0.70;;;0.50;;
6243;SDS011;3155;49.940;8.450;2023-04-29T04:23:46;0.30;;;0.30;;
6243;SDS011;3155;49.940;8.450;2023-04-29T04:26:13;0.33;;;0.33;;
6243;SDS011;3155;49.940;8.450;2023-04-29T04:28:40;0.57;;;0.57;;
6243;SDS011;3155;49.940;8.450;2023-04-29T04:31:07;0.30;;;0.30;;
6243;SDS011;3155;49.940;8.450;2023-04-29T04:33:34;0.70;;;0.70;;
6243;SDS011;3155;49.940;8.450;2023-04-29T04:36:01;0.50;;;0.50;;
6243;SDS011;3155;49.940;8.450;2023-04-29T04:38:46;1.15;;;1.15;;
6243;SDS011;3155;49.940;8.450;2023-04-29T04:41:13;0.82;;;0.82;;
6243;SDS011;3155;49.940;8.450;2023-04-29T04:43:39;1.30;;;1.20;;
6243;SDS011;3155;49.940;8.450;2023-04-29T04:46:10;1.50;;;1.20;;
6243;SDS011;3155;49.940;8.450;2023-04-29T04:48:38;1.05;;;1.05;;
6243;SDS011;3155;49.940;8.450;2023-04-29T04:51:11;1.13;;;1.13;;
6243;SDS011;3155;49.940;8.450;2023-04-29T04:53:39;1.83;;;1.73;;
6243;SDS011;3155;49.940;8.450;2023-04-29T04:56:06;1.67;;;1.57;;
6243;SDS011;3155;49.940;8.450;2023-04-29T04:58:33;1.60;;;1.50;;
6243;SDS011;3155;49.940;8.450;2023-04-29T05:01:00;1.55;;;1.45;;
6243;SDS011;3155;49.940;8.450;2023-04-29T05:03:27;1.25;;;1.23;;
6243;SDS011;3155;49.940;8.450;2023-04-29T05:05:54;2.22;;;2.00;;
6243;SDS011;3155;49.940;8.450;2023-04-29T05:08:22;1.63;;;1.27;;
6243;SDS011;3155;49.940;8.450;2023-04-29T05:10:49;2.00;;;1.90;;
6243;SDS011;3155;49.940;8.450;2023-04-29T05:13:19;1.70;;;1.60;;
6243;SDS011;3155;49.940;8.450;2023-04-29T05:15:46;2.35;;;1.52;;
6243;SDS011;3155;49.940;8.450;2023-04-29T05:18:13;2.83;;;1.92;;
6243;SDS011;3155;49.940;8.450;2023-04-29T05:20:42;2.00;;;1.83;;
6243;SDS011;3155;49.940;8.450;2023-04-29T05:23:09;1.52;;;1.42;;
6243;SDS011;3155;49.940;8.450;2023-04-29T05:25:36;2.60;;;1.90;;
6243;SDS011;3155;49.940;8.450;2023-04-29T05:28:03;1.67;;;1.58;;
6243;SDS011;3155;49.940;8.450;2023-04-29T05:30:30;1.63;;;1.50;;
6243;SDS011;3155;49.940;8.450;2023-04-29T05:32:57;1.48;;;1.38;;
6243;SDS011;3155;49.940;8.450;2023-04-29T05:35:24;2.05;;;1.23;;
6243;SDS011;3155;49.940;8.450;2023-04-29T05:37:51;1.17;;;1.17;;
6243;SDS011;3155;49.940;8.450;2023-04-29T05:40:22;1.92;;;1.83;;
6243;SDS011;3155;49.940;8.450;2023-04-29T05:42:49;1.85;;;1.75;;
6243;SDS011;3155;49.940;8.450;2023-04-29T05:45:16;2.38;;;1.70;;
6243;SDS011;3155;49.940;8.450;2023-04-29T05:47:43;1.67;;;1.40;;
6243;SDS011;3155;49.940;8.450;2023-04-29T05:50:10;2.80;;;2.38;;
6243;SDS011;3155;49.940;8.450;2023-04-29T05:52:37;2.33;;;1.45;;
6243;SDS011;3155;49.940;8.450;2023-04-29T05:55:07;2.05;;;1.20;;
6243;SDS011;3155;49.940;8.450;2023-04-29T05:57:34;2.25;;;2.05;;
6243;SDS011;3155;49.940;8.450;2023-04-29T06:00:00;1.67;;;1.58;;
6243;SDS011;3155;49.940;8.450;2023-04-29T06:02:29;3.00;;;1.70;;
6243;SDS011;3155;49.940;8.450;2023-04-29T06:04:56;2.35;;;1.58;;
6243;SDS011;3155;49.940;8.450;2023-04-29T06:07:23;2.42;;;2.13;;
6243;SDS011;3155;49.940;8.450;2023-04-29T06:09:51;1.90;;;1.80;;
6243;SDS011;3155;49.940;8.450;2023-04-29T06:12:20;1.60;;;1.42;;
6243;SDS011;3155;49.940;8.450;2023-04-29T06:14:47;2.35;;;1.90;;
6243;SDS011;3155;49.940;8.450;2023-04-29T06:17:14;2.25;;;1.60;;
6243;SDS011;3155;49.940;8.450;2023-04-29T06:19:41;1.65;;;1.45;;
6243;SDS011;3155;49.940;8.450;2023-04-29T06:22:09;1.58;;;1.50;;
6243;SDS011;3155;49.940;8.450;2023-04-29T06:24:36;1.25;;;1.10;;
6243;SDS011;3155;49.940;8.450;2023-04-29T06:27:03;1.00;;;1.00;;
6243;SDS011;3155;49.940;8.450;2023-04-29T06:29:30;3.40;;;1.35;;
6243;SDS011;3155;49.940;8.450;2023-04-29T06:31:57;1.52;;;1.42;;
6243;SDS011;3155;49.940;8.450;2023-04-29T06:34:23;1.67;;;1.20;;
6243;SDS011;3155;49.940;8.450;2023-04-29T06:36:50;2.33;;;1.15;;
6243;SDS011;3155;49.940;8.450;2023-04-29T06:39:17;1.40;;;1.35;;
6243;SDS011;3155;49.940;8.450;2023-04-29T06:41:44;1.73;;;1.63;;
6243;SDS011;3155;49.940;8.450;2023-04-29T06:44:12;1.47;;;1.37;;
6243;SDS011;3155;49.940;8.450;2023-04-29T06:46:39;0.68;;;0.68;;
6243;SDS011;3155;49.940;8.450;2023-04-29T06:49:07;0.68;;;0.68;;
6243;SDS011;3155;49.940;8.450;2023-04-29T06:51:33;0.93;;;0.93;;
6243;SDS011;3155;49.940;8.450;2023-04-29T06:54:02;0.90;;;0.90;;
6243;SDS011;3155;49.940;8.450;2023-04-29T06:56:29;0.93;;;0.93;;
6243;SDS011;3155;49.940;8.450;2023-04-29T06:58:56;1.23;;;0.85;;
6243;SDS011;3155;49.940;8.450;2023-04-29T07:01:23;0.65;;;0.65;;
6243;SDS011;3155;49.940;8.450;2023-04-29T07:03:50;1.05;;;1.05;;
6243;SDS011;3155;49.940;8.450;2023-04-29T07:06:19;0.73;;;0.60;;
6243;SDS011;3155;49.940;8.450;2023-04-29T07:08:46;0.90;;;0.90;;
6243;SDS011;3155;49.940;8.450;2023-04-29T07:11:12;0.80;;;0.75;;
6243;SDS011;3155;49.940;8.450;2023-04-29T07:13:39;1.00;;;0.98;;
6243;SDS011;3155;49.940;8.450;2023-04-29T07:16:13;1.88;;;1.20;;
6243;SDS011;3155;49.940;8.450;2023-04-29T07:18:42;1.70;;;1.20;;
6243;SDS011;3155;49.940;8.450;2023-04-29T07:21:09;1.25;;;1.00;;
6243;SDS011;3155;49.940;8.450;2023-04-29T07:23:35;1.05;;;0.95;;
6243;SDS011;3155;49.940;8.450;2023-04-29T07:26:09;0.82;;;0.68;;
6243;SDS011;3155;49.940;8.450;2023-04-29T07:28:41;0.67;;;0.67;;
6243;SDS011;3155;49.940;8.450;2023-04-29T07:31:08;1.88;;;1.33;;
6243;SDS011;3155;49.940;8.450;2023-04-29T07:33:37;1.77;;;1.67;;
6243;SDS011;3155;49.940;8.450;2023-04-29T07:36:03;1.38;;;1.02;;
6243;SDS011;3155;49.940;8.450;2023-04-29T07:38:32;1.13;;;1.10;;
6243;SDS011;3155;49.940;8.450;2023-04-29T07:40:59;0.93;;;0.82;;
6243;SDS011;3155;49.940;8.450;2023-04-29T07:43:26;0.88;;;0.85;;
6243;SDS011;3155;49.940;8.450;2023-04-29T07:45:55;1.60;;;0.80;;
6243;SDS011;3155;49.940;8.450;2023-04-29T07:48:22;1.65;;;1.45;;
6243;SDS011;3155;49.940;8.450;2023-04-29T07:50:48;1.80;;;1.15;;
6243;SDS011;3155;49.940;8.450;2023-04-29T07:53:15;1.13;;;1.00;;
6243;SDS011;3155;49.940;8.450;2023-04-29T07:55:46;1.48;;;1.38;;
6243;SDS011;3155;49.940;8.450;2023-04-29T07:58:13;1.30;;;1.20;;
6243;SDS011;3155;49.940;8.450;2023-04-29T08:00:39;1.45;;;1.35;;
6243;SDS011;3155;49.940;8.450;2023-04-29T08:03:07;2.47;;;1.27;;
6243;SDS011;3155;49.940;8.450;2023-04-29T08:05:34;0.90;;;0.90;;
6243;SDS011;3155;49.940;8.450;2023-04-29T08:08:01;1.23;;;1.13;;
6243;SDS011;3155;49.940;8.450;2023-04-29T08:10:28;1.90;;;1.70;;
6243;SDS011;3155;49.940;8.450;2023-04-29T08:12:57;1.90;;;1.30;;
6243;SDS011;3155;49.940;8.450;2023-04-29T08:15:24;1.00;;;1.00;;
6243;SDS011;3155;49.940;8.450;2023-04-29T08:17:51;1.48;;;1.38;;
6243;SDS011;3155;49.940;8.450;2023-04-29T08:20:19;1.60;;;1.02;;
6243;SDS011;3155;49.940;8.450;2023-04-29T08:22:46;1.17;;;0.98;;
6243;SDS011;3155;49.940;8.450;2023-04-29T08:25:13;1.50;;;1.40;;
6243;SDS011;3155;49.940;8.450;2023-04-29T08:27:39;1.20;;;1.20;;
6243;SDS011;3155;49.940;8.450;2023-04-29T08:30:08;1.02;;;1.02;;
6243;SDS011;3155;49.940;8.450;2023-04-29T08:32:35;1.10;;;1.10;;
6243;SDS011;3155;49.940;8.450;2023-04-29T08:35:02;1.83;;;1.63;;
6243;SDS011;3155;49.940;8.450;2023-04-29T08:37:29;2.03;;;1.25;;
6243;SDS011;3155;49.940;8.450;2023-04-29T08:39:58;0.77;;;0.77;;
6243;SDS011;3155;49.940;8.450;2023-04-29T08:42:32;1.20;;;1.20;;
6243;SDS011;3155;49.940;8.450;2023-04-29T08:45:04;1.40;;;1.30;;
6243;SDS011;3155;49.940;8.450;2023-04-29T08:47:32;1.47;;;1.37;;
6243;SDS011;3155;49.940;8.450;2023-04-29T08:50:00;1.20;;;1.20;;
6243;SDS011;3155;49.940;8.450;2023-04-29T08:52:31;1.10;;;1.10;;
6243;SDS011;3155;49.940;8.450;2023-04-29T08:55:00;2.10;;;1.40;;
6243;SDS011;3155;49.940;8.450;2023-04-29T08:57:28;1.55;;;1.45;;
6243;SDS011;3155;49.940;8.450;2023-04-29T08:59:57;1.60;;;1.20;;
6243;SDS011;3155;49.940;8.450;2023-04-29T09:02:26;1.35;;;1.27;;
6243;SDS011;3155;49.940;8.450;2023-04-29T09:04:56;1.90;;;1.63;;
6243;SDS011;3155;49.940;8.450;2023-04-29T09:07:29;1.70;;;1.60;;
6243;SDS011;3155;49.940;8.450;2023-04-29T09:10:03;0.90;;;0.90;;
6243;SDS011;3155;49.940;8.450;2023-04-29T09:12:30;0.90;;;0.90;;
6243;SDS011;3155;49.940;8.450;2023-04-29T09:14:59;1.40;;;1.30;;
6243;SDS011;3155;49.940;8.450;2023-04-29T09:25:16;1.70;;;1.00;;
6243;SDS011;3155;49.940;8.450;2023-04-29T09:27:46;1.13;;;1.02;;
6243;SDS011;3155;49.940;8.450;2023-04-29T09:30:12;1.27;;;1.17;;
6243;SDS011;3155;49.940;8.450;2023-04-29T09:32:41;1.10;;;1.10;;
6243;SDS011;3155;49.940;8.450;2023-04-29T09:35:26;0.70;;;0.70;;
6243;SDS011;3155;49.940;8.450;2023-04-29T09:37:54;0.80;;;0.80;;
6243;SDS011;3155;49.940;8.450;2023-04-29T09:40:38;1.20;;;1.10;;
6243;SDS011;3155;49.940;8.450;2023-04-29T09:43:23;1.23;;;1.23;;
6243;SDS011;3155;49.940;8.450;2023-04-29T09:45:54;0.60;;;0.60;;
6243;SDS011;3155;49.940;8.450;2023-04-29T09:48:29;0.50;;;0.50;;
6243;SDS011;3155;49.940;8.450;2023-04-29T09:50:59;0.75;;;0.60;;
6243;SDS011;3155;49.940;8.450;2023-04-29T09:53:31;1.33;;;1.25;;
6243;SDS011;3155;49.940;8.450;2023-04-29T09:55:59;1.50;;;1.40;;
6243;SDS011;3155;49.940;8.450;2023-04-29T09:58:32;1.05;;;1.05;;
6243;SDS011;3155;49.940;8.450;2023-04-29T10:01:03;1.73;;;1.50;;
6243;SDS011;3155;49.940;8.450;2023-04-29T10:03:34;1.67;;;1.40;;
6243;SDS011;3155;49.940;8.450;2023-04-29T10:06:04;1.45;;;1.23;;
6243;SDS011;3155;49.940;8.450;2023-04-29T10:08:32;1.57;;;1.47;;
6243;SDS011;3155;49.940;8.450;2023-04-29T10:11:00;1.40;;;1.10;;
6243;SDS011;3155;49.940;8.450;2023-04-29T10:13:28;1.40;;;1.23;;
6243;SDS011;3155;49.940;8.450;2023-04-29T10:16:10;1.00;;;1.00;;
6243;SDS011;3155;49.940;8.450;2023-04-29T10:18:51;1.42;;;1.33;;
6243;SDS011;3155;49.940;8.450;2023-04-29T10:21:27;1.00;;;1.00;;
6243;SDS011;3155;49.940;8.450;2023-04-29T10:23:57;0.97;;;0.97;;
6243;SDS011;3155;49.940;8.450;2023-04-29T10:26:25;1.00;;;1.00;;
6243;SDS011;3155;49.940;8.450;2023-04-29T10:28:55;1.15;;;0.90;;
6243;SDS011;3155;49.940;8.450;2023-04-29T10:31:25;1.20;;;1.05;;
6243;SDS011;3155;49.940;8.450;2023-04-29T10:33:56;1.02;;;1.02;;
6243;SDS011;3155;49.940;8.450;2023-04-29T10:36:27;1.00;;;1.00;;
6243;SDS011;3155;49.940;8.450;2023-04-29T10:38:57;0.77;;;0.77;;
6243;SDS011;3155;49.940;8.450;2023-04-29T10:41:27;0.60;;;0.57;;
6243;SDS011;3155;49.940;8.450;2023-04-29T10:43:58;0.80;;;0.80;;
6243;SDS011;3155;49.940;8.450;2023-04-29T10:46:29;1.20;;;0.60;;
6243;SDS011;3155;49.940;8.450;2023-04-29T10:49:02;1.17;;;1.08;;
6243;SDS011;3155;49.940;8.450;2023-04-29T10:51:38;0.43;;;0.43;;
6243;SDS011;3155;49.940;8.450;2023-04-29T10:54:14;1.08;;;1.08;;
6243;SDS011;3155;49.940;8.450;2023-04-29T10:56:51;0.63;;;0.63;;
6243;SDS011;3155;49.940;8.450;2023-04-29T10:59:20;0.95;;;0.85;;
6243;SDS011;3155;49.940;8.450;2023-04-29T11:02:08;0.83;;;0.83;;
6243;SDS011;3155;49.940;8.450;2023-04-29T11:05:05;0.50;;;0.50;;
6243;SDS011;3155;49.940;8.450;2023-04-29T11:07:35;1.05;;;0.88;;
6243;SDS011;3155;49.940;8.450;2023-04-29T11:10:12;0.75;;;0.75;;
6243;SDS011;3155;49.940;8.450;2023-04-29T11:12:42;0.43;;;0.43;;
6243;SDS011;3155;49.940;8.450;2023-04-29T11:15:08;0.80;;;0.80;;
6243;SDS011;3155;49.940;8.450;2023-04-29T11:17:36;0.85;;;0.85;;
6243;SDS011;3155;49.940;8.450;2023-04-29T11:20:06;0.83;;;0.80;;
6243;SDS011;3155;49.940;8.450;2023-04-29T11:22:37;0.75;;;0.75;;
6243;SDS011;3155;49.940;8.450;2023-04-29T11:25:05;0.60;;;0.60;;
6243;SDS011;3155;49.940;8.450;2023-04-29T11:27:36;0.60;;;0.60;;
6243;SDS011;3155;49.940;8.450;2023-04-29T11:30:05;0.65;;;0.65;;
6243;SDS011;3155;49.940;8.450;2023-04-29T11:32:38;0.50;;;0.50;;
6243;SDS011;3155;49.940;8.450;2023-04-29T11:35:06;0.53;;;0.53;;
6243;SDS011;3155;49.940;8.450;2023-04-29T11:37:36;0.57;;;0.57;;
6243;SDS011;3155;49.940;8.450;2023-04-29T11:40:05;1.05;;;0.90;;
6243;SDS011;3155;49.940;8.450;2023-04-29T11:42:33;0.88;;;0.70;;
6243;SDS011;3155;49.940;8.450;2023-04-29T11:45:02;0.88;;;0.82;;
6243;SDS011;3155;49.940;8.450;2023-04-29T11:47:31;0.70;;;0.60;;
6243;SDS011;3155;49.940;8.450;2023-04-29T11:50:05;0.70;;;0.70;;
6243;SDS011;3155;49.940;8.450;2023-04-29T11:52:34;0.77;;;0.77;;
6243;SDS011;3155;49.940;8.450;2023-04-29T11:55:03;0.40;;;0.40;;
6243;SDS011;3155;49.940;8.450;2023-04-29T11:57:31;0.80;;;0.73;;
6243;SDS011;3155;49.940;8.450;2023-04-29T11:59:58;0.50;;;0.50;;
6243;SDS011;3155;49.940;8.450;2023-04-29T12:02:32;0.50;;;0.50;;
6243;SDS011;3155;49.940;8.450;2023-04-29T12:05:04;1.40;;;0.60;;
6243;SDS011;3155;49.940;8.450;2023-04-29T12:07:33;0.40;;;0.40;;
6243;SDS011;3155;49.940;8.450;2023-04-29T12:10:01;0.43;;;0.43;;
6243;SDS011;3155;49.940;8.450;2023-04-29T12:12:28;0.57;;;0.57;;
6243;SDS011;3155;49.940;8.450;2023-04-29T12:15:00;0.50;;;0.50;;
6243;SDS011;3155;49.940;8.450;2023-04-29T12:17:28;1.10;;;0.88;;
6243;SDS011;3155;49.940;8.450;2023-04-29T12:19:55;0.50;;;0.50;;
6243;SDS011;3155;49.940;8.450;2023-04-29T12:22:29;0.45;;;0.45;;
6243;SDS011;3155;49.940;8.450;2023-04-29T12:25:03;0.50;;;0.50;;
6243;SDS011;3155;49.940;8.450;2023-04-29T12:27:31;0.70;;;0.70;;
6243;SDS011;3155;49.940;8.450;2023-04-29T12:30:22;0.68;;;0.63;;
6243;SDS011;3155;49.940;8.450;2023-04-29T12:33:17;0.60;;;0.60;;
6243;SDS011;3155;49.940;8.450;2023-04-29T12:35:55;0.52;;;0.52;;
6243;SDS011;3155;49.940;8.450;2023-04-29T12:38:23;0.65;;;0.65;;
6243;SDS011;3155;49.940;8.450;2023-04-29T12:40:55;0.73;;;0.68;;
6243;SDS011;3155;49.940;8.450;2023-04-29T12:43:25;0.82;;;0.60;;
6243;SDS011;3155;49.940;8.450;2023-04-29T12:46:01;0.55;;;0.52;;
6243;SDS011;3155;49.940;8.450;2023-04-29T12:48:37;0.43;;;0.43;;
6243;SDS011;3155;49.940;8.450;2023-04-29T12:51:09;0.73;;;0.60;;
6243;SDS011;3155;49.940;8.450;2023-04-29T12:53:37;1.55;;;0.77;;
6243;SDS011;3155;49.940;8.450;2023-04-29T12:56:07;0.70;;;0.70;;
6243;SDS011;3155;49.940;8.450;2023-04-29T12:58:39;0.60;;;0.60;;
6243;SDS011;3155;49.940;8.450;2023-04-29T13:01:08;0.60;;;0.60;;
6243;SDS011;3155;49.940;8.450;2023-04-29T13:03:36;0.83;;;0.83;;
6243;SDS011;3155;49.940;8.450;2023-04-29T13:06:04;0.70;;;0.60;;
6243;SDS011;3155;49.940;8.450;2023-04-29T13:08:40;0.90;;;0.80;;
6243;SDS011;3155;49.940;8.450;2023-04-29T13:11:07;0.70;;;0.68;;
6243;SDS011;3155;49.940;8.450;2023-04-29T13:13:34;0.90;;;0.90;;
6243;SDS011;3155;49.940;8.450;2023-04-29T13:16:00;0.70;;;0.70;;
6243;SDS011;3155;49.940;8.450;2023-04-29T13:18:27;1.38;;;0.70;;
6243;SDS011;3155;49.940;8.450;2023-04-29T13:20:56;0.75;;;0.52;;
6243;SDS011;3155;49.940;8.450;2023-04-29T13:23:23;0.88;;;0.77;;
6243;SDS011;3155;49.940;8.450;2023-04-29T13:25:49;0.98;;;0.98;;
6243;SDS011;3155;49.940;8.450;2023-04-29T13:28:20;0.77;;;0.70;;
6243;SDS011;3155;49.940;8.450;2023-04-29T13:30:47;0.55;;;0.55;;
6243;SDS011;3155;49.940;8.450;2023-04-29T13:33:15;0.70;;;0.70;;
6243;SDS011;3155;49.940;8.450;2023-04-29T13:35:44;0.65;;;0.65;;
6243;SDS011;3155;49.940;8.450;2023-04-29T13:38:12;0.70;;;0.70;;
6243;SDS011;3155;49.940;8.450;2023-04-29T13:40:42;0.88;;;0.85;;
6243;SDS011;3155;49.940;8.450;2023-04-29T13:43:12;0.50;;;0.50;;
6243;SDS011;3155;49.940;8.450;2023-04-29T13:45:49;0.80;;;0.80;;
6243;SDS011;3155;49.940;8.450;2023-04-29T13:48:21;0.57;;;0.57;;
6243;SDS011;3155;49.940;8.450;2023-04-29T13:51:11;0.77;;;0.77;;
6243;SDS011;3155;49.940;8.450;2023-04-29T13:53:47;0.50;;;0.50;;
6243;SDS011;3155;49.940;8.450;2023-04-29T13:56:18;0.50;;;0.50;;
6243;SDS011;3155;49.940;8.450;2023-04-29T13:59:10;0.40;;;0.40;;
6243;SDS011;3155;49.940;8.450;2023-04-29T14:01:57;0.50;;;0.50;;
6243;SDS011;3155;49.940;8.450;2023-04-29T14:04:30;0.55;;;0.55;;
6243;SDS011;3155;49.940;8.450;2023-04-29T14:06:57;0.93;;;0.93;;
6243;SDS011;3155;49.940;8.450;2023-04-29T14:09:24;0.82;;;0.82;;
6243;SDS011;3155;49.940;8.450;2023-04-29T14:11:53;0.85;;;0.85;;
6243;SDS011;3155;49.940;8.450;2023-04-29T14:14:26;0.60;;;0.60;;
6243;SDS011;3155;49.940;8.450;2023-04-29T14:16:52;0.70;;;0.70;;
6243;SDS011;3155;49.940;8.450;2023-04-29T14:19:20;0.50;;;0.50;;
6243;SDS011;3155;49.940;8.450;2023-04-29T14:21:47;0.50;;;0.50;;
6243;SDS011;3155;49.940;8.450;2023-04-29T14:24:13;0.70;;;0.70;;
6243;SDS011;3155;49.940;8.450;2023-04-29T14:26:42;0.80;;;0.80;;
6243;SDS011;3155;49.940;8.450;2023-04-29T14:29:09;0.90;;;0.90;;
6243;SDS011;3155;49.940;8.450;2023-04-29T14:31:36;0.70;;;0.70;;
6243;SDS011;3155;49.940;8.450;2023-04-29T14:34:06;0.80;;;0.80;;
6243;SDS011;3155;49.940;8.450;2023-04-29T14:36:32;1.08;;;0.73;;
6243;SDS011;3155;49.940;8.450;2023-04-29T14:39:02;0.68;;;0.68;;
6243;SDS011;3155;49.940;8.450;2023-04-29T14:41:29;1.00;;;0.60;;
6243;SDS011;3155;49.940;8.450;2023-04-29T14:43:56;1.00;;;0.90;;
6243;SDS011;3155;49.940;8.450;2023-04-29T14:46:22;1.23;;;1.17;;
6243;SDS011;3155;49.940;8.450;2023-04-29T14:48:52;1.27;;;1.07;;
6243;SDS011;3155;49.940;8.450;2023-04-29T14:51:19;0.90;;;0.90;;
6243;SDS011;3155;49.940;8.450;2023-04-29T14:53:49;0.90;;;0.90;;
6243;SDS011;3155;49.940;8.450;2023-04-29T14:56:20;0.80;;;0.80;;
6243;SDS011;3155;49.940;8.450;2023-04-29T14:58:50;0.70;;;0.70;;
6243;SDS011;3155;49.940;8.450;2023-04-29T15:01:17;0.70;;;0.70;;
6243;SDS011;3155;49.940;8.450;2023-04-29T15:03:47;0.88;;;0.88;;
6243;SDS011;3155;49.940;8.450;2023-04-29T15:06:14;0.90;;;0.90;;
6243;SDS011;3155;49.940;8.450;2023-04-29T15:08:41;1.02;;;0.75;;
6243;SDS011;3155;49.940;8.450;2023-04-29T15:11:08;1.30;;;0.93;;
6243;SDS011;3155;49.940;8.450;2023-04-29T15:13:35;0.60;;;0.60;;
6243;SDS011;3155;49.940;8.450;2023-04-29T15:16:03;0.40;;;0.40;;
6243;SDS011;3155;49.940;8.450;2023-04-29T15:18:32;0.77;;;0.68;;
6243;SDS011;3155;49.940;8.450;2023-04-29T15:20:59;0.67;;;0.60;;
6243;SDS011;3155;49.940;8.450;2023-04-29T15:23:30;0.60;;;0.60;;
6243;SDS011;3155;49.940;8.450;2023-04-29T15:26:02;1.00;;;0.57;;
6243;SDS011;3155;49.940;8.450;2023-04-29T15:28:29;1.38;;;0.63;;
6243;SDS011;3155;49.940;8.450;2023-04-29T15:30:58;0.50;;;0.50;;
6243;SDS011;3155;49.940;8.450;2023-04-29T15:33:26;0.50;;;0.50;;
6243;SDS011;3155;49.940;8.450;2023-04-29T15:35:56;0.40;;;0.40;;
6243;SDS011;3155;49.940;8.450;2023-04-29T15:38:25;0.55;;;0.55;;
6243;SDS011;3155;49.940;8.450;2023-04-29T15:40:52;0.65;;;0.65;;
6243;SDS011;3155;49.940;8.450;2023-04-29T15:43:26;0.40;;;0.40;;
6243;SDS011;3155;49.940;8.450;2023-04-29T15:45:53;0.43;;;0.43;;
6243;SDS011;3155;49.940;8.450;2023-04-29T15:48:20;0.70;;;0.60;;
6243;SDS011;3155;49.940;8.450;2023-04-29T15:50:47;0.63;;;0.63;;